createdAt,value
2022-08-11T00:00:00.676Z,0
2022-08-11T00:01:01.290Z,0
2022-08-11T00:02:01.867Z,0
2022-08-11T00:03:02.532Z,0
2022-08-11T00:04:03.077Z,0
2022-08-11T00:05:03.673Z,0
2022-08-11T00:06:04.268Z,0
2022-08-11T00:07:04.872Z,0
2022-08-11T00:08:05.490Z,0
2022-08-11T00:09:06.078Z,0
2022-08-11T00:10:06.673Z,0
2022-08-11T00:11:07.271Z,0
2022-08-11T00:12:07.867Z,0
2022-08-11T00:13:08.463Z,0
2022-08-11T00:14:10.052Z,0
2022-08-11T00:15:10.650Z,0
2022-08-11T00:16:11.246Z,0
2022-08-11T00:17:11.843Z,0
2022-08-11T00:18:12.460Z,0
2022-08-11T00:19:13.068Z,0
2022-08-11T00:20:16.602Z,0
2022-08-11T00:21:14.261Z,0
2022-08-11T00:22:14.856Z,0
2022-08-11T00:23:17.409Z,0
2022-08-11T00:24:17.039Z,0
2022-08-11T00:25:17.637Z,0
2022-08-11T00:26:18.233Z,0
2022-08-11T00:27:18.827Z,0
2022-08-11T00:28:19.424Z,0
2022-08-11T00:29:20.020Z,0
2022-08-11T00:30:20.617Z,0
2022-08-11T00:31:21.217Z,0
2022-08-11T00:32:21.826Z,0
2022-08-11T00:33:22.423Z,0
2022-08-11T00:34:24.010Z,0
2022-08-11T00:35:53.848Z,0
2022-08-11T00:36:26.215Z,0
2022-08-11T00:37:26.812Z,0
2022-08-11T00:38:27.410Z,0
2022-08-11T00:39:29.241Z,0
2022-08-11T00:40:29.612Z,0
2022-08-11T00:41:30.216Z,0
2022-08-11T00:42:30.807Z,0
2022-08-11T00:43:31.402Z,0
2022-08-11T00:44:31.996Z,0
2022-08-11T00:45:32.598Z,0
2022-08-11T00:46:33.190Z,0
2022-08-11T00:47:33.788Z,0
2022-08-11T00:48:34.397Z,0
2022-08-11T00:49:34.977Z,0
2022-08-11T00:50:35.572Z,0
2022-08-11T00:52:04.909Z,0
2022-08-11T00:52:37.815Z,0
2022-08-11T00:53:38.440Z,0
2022-08-11T00:54:39.032Z,0
2022-08-11T00:55:39.631Z,0
2022-08-11T00:56:40.225Z,0
2022-08-11T00:57:40.822Z,0
2022-08-11T00:58:41.419Z,0
2022-08-11T00:59:43.007Z,0
2022-08-11T01:00:43.651Z,0
2022-08-11T01:01:44.203Z,0
2022-08-11T01:02:44.792Z,0
2022-08-11T01:03:45.391Z,0
2022-08-11T01:04:45.988Z,0
2022-08-11T01:05:47.573Z,0
2022-08-11T01:06:48.174Z,0
2022-08-11T01:08:02.500Z,0
2022-08-11T01:08:50.354Z,0
2022-08-11T01:09:50.953Z,0
2022-08-11T01:10:51.565Z,0
2022-08-11T01:11:55.926Z,0
2022-08-11T01:12:53.751Z,0
2022-08-11T01:13:54.346Z,0
2022-08-11T01:14:54.941Z,0
2022-08-11T01:15:57.019Z,0
2022-08-11T01:16:57.126Z,0
2022-08-11T01:17:57.722Z,0
2022-08-11T01:18:58.319Z,0
2022-08-11T01:20:39.699Z,0
2022-08-11T01:21:00.503Z,0
2022-08-11T01:22:01.100Z,0
2022-08-11T01:23:01.693Z,0
2022-08-11T01:24:02.291Z,0
2022-08-11T01:25:02.883Z,0
2022-08-11T01:26:03.480Z,0
2022-08-11T01:27:04.082Z,0
2022-08-11T01:28:05.664Z,0
2022-08-11T01:29:06.257Z,0
2022-08-11T01:30:06.853Z,0
2022-08-11T01:31:07.449Z,0
2022-08-11T01:32:08.049Z,0
2022-08-11T01:33:08.640Z,0
2022-08-11T01:34:09.238Z,0
2022-08-11T01:35:09.830Z,0
2022-08-11T01:36:10.428Z,0
2022-08-11T01:37:11.021Z,0
2022-08-11T01:38:11.616Z,0
2022-08-11T01:39:12.235Z,0
2022-08-11T01:40:13.801Z,0
2022-08-11T01:41:14.397Z,0
2022-08-11T01:42:14.994Z,0
2022-08-11T01:43:15.590Z,0
2022-08-11T01:44:16.186Z,0
2022-08-11T01:45:16.783Z,0
2022-08-11T01:46:17.401Z,0
2022-08-11T01:47:17.992Z,0
2022-08-11T01:48:18.587Z,0
2022-08-11T01:50:08.992Z,0
2022-08-11T01:50:20.794Z,0
2022-08-11T01:51:21.388Z,0
2022-08-11T01:52:30.273Z,0
2022-08-11T01:53:23.572Z,0
2022-08-11T01:54:24.170Z,0
2022-08-11T01:55:24.766Z,0
2022-08-11T01:56:25.362Z,0
2022-08-11T01:57:25.956Z,0
2022-08-11T01:58:29.363Z,0
2022-08-11T01:59:28.141Z,0
2022-08-11T02:00:28.793Z,0
2022-08-11T02:01:29.355Z,0
2022-08-11T02:02:29.951Z,0
2022-08-11T02:03:30.549Z,0
2022-08-11T02:04:32.140Z,0
2022-08-11T02:05:32.755Z,0
2022-08-11T02:06:33.354Z,0
2022-08-11T02:07:33.951Z,0
2022-08-11T02:08:34.546Z,0
2022-08-11T02:09:35.838Z,0
2022-08-11T02:10:38.486Z,0
2022-08-11T02:11:39.017Z,0
2022-08-11T02:12:42.190Z,0
2022-08-11T02:13:41.218Z,0
2022-08-11T02:14:41.833Z,0
2022-08-11T02:15:43.415Z,0
2022-08-11T02:16:44.014Z,0
2022-08-11T02:17:44.611Z,0
2022-08-11T02:18:45.209Z,0
2022-08-11T02:19:46.181Z,0
2022-08-11T02:20:46.777Z,0
2022-08-11T02:21:47.372Z,0
2022-08-11T02:22:47.970Z,0
2022-08-11T02:24:06.625Z,0
2022-08-11T02:24:49.179Z,0
2022-08-11T02:25:49.773Z,0
2022-08-11T02:26:50.367Z,0
2022-08-11T02:27:50.983Z,0
2022-08-11T02:28:51.579Z,0
2022-08-11T02:29:52.175Z,0
2022-08-11T02:30:52.774Z,0
2022-08-11T02:32:04.882Z,0
2022-08-11T02:32:54.957Z,0
2022-08-11T02:33:55.558Z,0
2022-08-11T02:34:59.817Z,0
2022-08-11T02:35:57.737Z,0
2022-08-11T02:36:58.329Z,0
2022-08-11T02:37:58.927Z,0
2022-08-11T02:38:59.522Z,0
2022-08-11T02:40:00.165Z,0
2022-08-11T02:41:00.734Z,0
2022-08-11T02:42:01.330Z,0
2022-08-11T02:43:01.928Z,0
2022-08-11T02:44:02.525Z,0
2022-08-11T02:45:03.121Z,0
2022-08-11T02:46:03.718Z,0
2022-08-11T02:47:04.329Z,0
2022-08-11T02:48:04.929Z,0
2022-08-11T02:49:05.524Z,0
2022-08-11T02:50:07.326Z,0
2022-08-11T02:51:07.727Z,0
2022-08-11T02:52:08.326Z,0
2022-08-11T02:53:08.918Z,0
2022-08-11T02:54:09.514Z,0
2022-08-11T02:55:10.109Z,0
2022-08-11T02:56:11.699Z,0
2022-08-11T02:57:12.294Z,0
2022-08-11T02:58:12.890Z,0
2022-08-11T02:59:13.485Z,0
2022-08-11T03:00:14.085Z,0
2022-08-11T03:01:14.730Z,0
2022-08-11T03:02:15.317Z,0
2022-08-11T03:03:15.908Z,0
2022-08-11T03:04:16.503Z,0
2022-08-11T03:05:17.126Z,0
2022-08-11T03:06:17.713Z,0
2022-08-11T03:07:28.975Z,0
2022-08-11T03:08:19.897Z,0
2022-08-11T03:09:20.490Z,0
2022-08-11T03:10:21.105Z,0
2022-08-11T03:11:21.701Z,0
2022-08-11T03:12:22.298Z,0
2022-08-11T03:13:22.895Z,0
2022-08-11T03:14:23.487Z,0
2022-08-11T03:15:25.082Z,0
2022-08-11T03:16:25.691Z,0
2022-08-11T03:17:26.289Z,0
2022-08-11T03:18:26.894Z,0
2022-08-11T03:19:27.480Z,0
2022-08-11T03:20:33.309Z,0
2022-08-11T03:21:39.555Z,0
2022-08-11T03:22:30.274Z,0
2022-08-11T03:23:30.872Z,0
2022-08-11T03:24:31.464Z,0
2022-08-11T03:25:32.058Z,0
2022-08-11T03:26:32.656Z,0
2022-08-11T03:27:33.271Z,0
2022-08-11T03:28:33.869Z,0
2022-08-11T03:29:34.461Z,0
2022-08-11T03:30:35.057Z,0
2022-08-11T03:31:35.654Z,0
2022-08-11T03:32:36.309Z,0
2022-08-11T03:33:36.909Z,0
2022-08-11T03:34:37.505Z,0
2022-08-11T03:35:38.101Z,0
2022-08-11T03:37:15.067Z,0
2022-08-11T03:37:40.290Z,0
2022-08-11T03:38:40.885Z,0
2022-08-11T03:39:56.064Z,0
2022-08-11T03:40:42.095Z,0
2022-08-11T03:42:02.672Z,0
2022-08-11T03:42:44.282Z,0
2022-08-11T03:43:45.808Z,0
2022-08-11T03:44:46.467Z,0
2022-08-11T03:45:47.074Z,0
2022-08-11T03:46:47.662Z,0
2022-08-11T03:47:52.617Z,5
2022-08-11T03:48:49.868Z,5
2022-08-11T03:49:50.465Z,5
2022-08-11T03:50:54.965Z,5
2022-08-11T03:51:52.651Z,5
2022-08-11T03:52:53.249Z,5
2022-08-11T03:53:53.847Z,11
2022-08-11T03:54:54.446Z,11
2022-08-11T03:55:55.046Z,11
2022-08-11T03:56:55.647Z,11
2022-08-11T03:57:56.245Z,16
2022-08-11T03:58:56.865Z,16
2022-08-11T03:59:57.444Z,16
2022-08-11T04:00:58.044Z,22
2022-08-11T04:01:58.686Z,22
2022-08-11T04:02:59.249Z,22
2022-08-11T04:03:59.853Z,28
2022-08-11T04:05:00.452Z,28
2022-08-11T04:06:01.047Z,33
2022-08-11T04:07:02.529Z,33
2022-08-11T04:08:03.127Z,39
2022-08-11T04:09:03.726Z,39
2022-08-11T04:10:04.337Z,39
2022-08-11T04:11:04.928Z,45
2022-08-11T04:12:05.527Z,45
2022-08-11T04:13:06.127Z,50
2022-08-11T04:14:06.726Z,50
2022-08-11T04:15:07.327Z,56
2022-08-11T04:16:11.455Z,56
2022-08-11T04:17:08.542Z,61
2022-08-11T04:18:09.140Z,67
2022-08-11T04:19:09.740Z,67
2022-08-11T04:20:10.338Z,73
2022-08-11T04:21:10.938Z,73
2022-08-11T04:22:11.537Z,78
2022-08-11T04:23:12.137Z,78
2022-08-11T04:24:37.913Z,84
2022-08-11T04:25:15.324Z,84
2022-08-11T04:26:18.568Z,90
2022-08-11T04:27:19.149Z,95
2022-08-11T04:28:29.132Z,95
2022-08-11T04:29:20.703Z,101
2022-08-11T04:30:21.303Z,101
2022-08-11T04:31:50.301Z,106
2022-08-11T04:32:23.840Z,106
2022-08-11T04:33:24.440Z,112
2022-08-11T04:34:25.042Z,112
2022-08-11T04:35:25.643Z,118
2022-08-11T04:36:26.245Z,123
2022-08-11T04:37:26.868Z,123
2022-08-11T04:38:27.469Z,129
2022-08-11T04:39:28.123Z,129
2022-08-11T04:40:28.716Z,135
2022-08-11T04:41:29.337Z,135
2022-08-11T04:42:38.038Z,140
2022-08-11T04:43:32.526Z,140
2022-08-11T04:44:33.126Z,146
2022-08-11T04:45:33.730Z,146
2022-08-11T04:46:34.329Z,151
2022-08-11T04:48:04.123Z,151
2022-08-11T04:48:35.545Z,157
2022-08-11T04:49:36.147Z,157
2022-08-11T04:50:36.747Z,163
2022-08-11T04:51:37.350Z,163
2022-08-11T04:52:38.471Z,168
2022-08-11T04:53:39.087Z,168
2022-08-11T04:54:39.730Z,174
2022-08-11T04:55:40.308Z,174
2022-08-11T04:56:41.112Z,180
2022-08-11T04:57:41.713Z,180
2022-08-11T04:58:42.313Z,185
2022-08-11T04:59:42.929Z,185
2022-08-11T05:00:43.666Z,191
2022-08-11T05:01:44.337Z,191
2022-08-11T05:02:44.893Z,196
2022-08-11T05:03:45.496Z,196
2022-08-11T05:04:46.093Z,196
2022-08-11T05:05:56.637Z,202
2022-08-11T05:06:47.310Z,202
2022-08-11T05:07:47.913Z,208
2022-08-11T05:08:48.513Z,208
2022-08-11T05:09:49.116Z,213
2022-08-11T05:10:49.714Z,213
2022-08-11T05:11:50.324Z,213
2022-08-11T05:12:51.917Z,219
2022-08-11T05:13:52.535Z,219
2022-08-11T05:14:53.137Z,225
2022-08-11T05:15:53.738Z,225
2022-08-11T05:16:54.335Z,225
2022-08-11T05:17:54.940Z,230
2022-08-11T05:18:55.540Z,230
2022-08-11T05:19:56.144Z,230
2022-08-11T05:20:58.678Z,236
2022-08-11T05:21:58.335Z,236
2022-08-11T05:22:58.939Z,241
2022-08-11T05:23:59.542Z,241
2022-08-11T05:25:00.148Z,241
2022-08-11T05:26:44.064Z,247
2022-08-11T05:27:03.330Z,247
2022-08-11T05:28:03.932Z,247
2022-08-11T05:29:20.347Z,253
2022-08-11T05:30:06.127Z,253
2022-08-11T05:31:06.727Z,253
2022-08-11T05:32:07.329Z,258
2022-08-11T05:33:07.930Z,258
2022-08-11T05:34:08.557Z,258
2022-08-11T05:35:09.151Z,264
2022-08-11T05:36:09.754Z,264
2022-08-11T05:37:26.256Z,264
2022-08-11T05:38:11.947Z,264
2022-08-11T05:39:12.587Z,270
2022-08-11T05:40:13.147Z,270
2022-08-11T05:41:13.746Z,270
2022-08-11T05:42:21.331Z,275
2022-08-11T05:43:15.938Z,270
2022-08-11T05:44:21.894Z,275
2022-08-11T05:45:18.136Z,275
2022-08-11T05:46:19.733Z,281
2022-08-11T05:47:20.330Z,281
2022-08-11T05:48:20.933Z,286
2022-08-11T05:49:22.525Z,292
2022-08-11T05:50:32.987Z,298
2022-08-11T05:51:30.171Z,298
2022-08-11T05:52:31.720Z,303
2022-08-11T05:53:27.911Z,303
2022-08-11T05:54:29.704Z,309
2022-08-11T05:55:30.310Z,315
2022-08-11T05:56:30.930Z,309
2022-08-11T05:57:42.376Z,315
2022-08-11T05:58:35.866Z,320
2022-08-11T05:59:34.721Z,326
2022-08-11T06:00:35.322Z,331
2022-08-11T06:01:35.940Z,331
2022-08-11T06:02:36.652Z,337
2022-08-11T06:03:37.281Z,343
2022-08-11T06:04:37.884Z,348
2022-08-11T06:05:43.506Z,348
2022-08-11T06:06:43.484Z,354
2022-08-11T06:07:49.012Z,365
2022-08-11T06:08:43.268Z,365
2022-08-11T06:09:43.865Z,376
2022-08-11T06:10:44.469Z,382
2022-08-11T06:11:45.218Z,382
2022-08-11T06:12:45.769Z,388
2022-08-11T06:13:46.370Z,399
2022-08-11T06:14:46.970Z,405
2022-08-11T06:15:47.574Z,410
2022-08-11T06:16:48.171Z,416
2022-08-11T06:17:48.771Z,421
2022-08-11T06:18:49.371Z,427
2022-08-11T06:19:49.971Z,438
2022-08-11T06:20:50.594Z,444
2022-08-11T06:21:51.191Z,444
2022-08-11T06:22:53.137Z,455
2022-08-11T06:23:53.387Z,466
2022-08-11T06:24:53.992Z,472
2022-08-11T06:25:56.496Z,483
2022-08-11T06:27:13.168Z,489
2022-08-11T06:27:57.782Z,500
2022-08-11T06:28:58.404Z,511
2022-08-11T06:29:59.391Z,523
2022-08-11T06:31:00.011Z,534
2022-08-11T06:32:00.595Z,534
2022-08-11T06:33:01.197Z,545
2022-08-11T06:34:01.799Z,556
2022-08-11T06:35:02.406Z,562
2022-08-11T06:36:03.026Z,573
2022-08-11T06:37:03.630Z,585
2022-08-11T06:38:04.251Z,596
2022-08-11T06:39:04.859Z,607
2022-08-11T06:40:05.456Z,618
2022-08-11T06:41:06.058Z,630
2022-08-11T06:42:06.658Z,635
2022-08-11T06:43:07.282Z,646
2022-08-11T06:44:07.883Z,652
2022-08-11T06:45:08.504Z,658
2022-08-11T06:46:09.104Z,669
2022-08-11T06:47:09.707Z,680
2022-08-11T06:48:10.307Z,691
2022-08-11T06:49:10.909Z,703
2022-08-11T06:50:11.528Z,703
2022-08-11T06:51:12.183Z,708
2022-08-11T06:52:35.128Z,714
2022-08-11T06:53:14.377Z,725
2022-08-11T06:54:14.975Z,725
2022-08-11T06:55:56.743Z,736
2022-08-11T06:56:17.192Z,742
2022-08-11T06:57:33.153Z,753
2022-08-11T06:58:19.392Z,759
2022-08-11T06:59:19.994Z,781
2022-08-11T07:00:20.597Z,798
2022-08-11T07:01:21.233Z,821
2022-08-11T07:02:21.802Z,843
2022-08-11T07:03:22.402Z,866
2022-08-11T07:04:23.009Z,871
2022-08-11T07:05:23.611Z,888
2022-08-11T07:06:24.212Z,900
2022-08-11T07:07:24.814Z,911
2022-08-11T07:08:33.727Z,922
2022-08-11T07:09:27.030Z,933
2022-08-11T07:10:27.633Z,956
2022-08-11T07:11:28.239Z,967
2022-08-11T07:12:28.864Z,978
2022-08-11T07:13:45.088Z,995
2022-08-11T07:14:35.053Z,1006
2022-08-11T07:16:12.403Z,1035
2022-08-11T07:16:33.247Z,1046
2022-08-11T07:17:33.851Z,1068
2022-08-11T07:18:34.454Z,1085
2022-08-11T07:19:35.058Z,1108
2022-08-11T07:20:35.664Z,1147
2022-08-11T07:21:50.575Z,1158
2022-08-11T07:22:37.021Z,1186
2022-08-11T07:23:37.501Z,1226
2022-08-11T07:25:01.528Z,1243
2022-08-11T07:25:39.705Z,1260
2022-08-11T07:26:40.306Z,1260
2022-08-11T07:27:40.909Z,1265
2022-08-11T07:28:41.514Z,1282
2022-08-11T07:29:42.116Z,1282
2022-08-11T07:30:42.720Z,1293
2022-08-11T07:31:43.343Z,1288
2022-08-11T07:32:43.946Z,1293
2022-08-11T07:34:07.441Z,1310
2022-08-11T07:34:46.146Z,1338
2022-08-11T07:35:46.748Z,1350
2022-08-11T07:36:47.373Z,1355
2022-08-11T07:37:48.000Z,1366
2022-08-11T07:38:48.601Z,1378
2022-08-11T07:39:49.260Z,1378
2022-08-11T07:40:49.852Z,1400
2022-08-11T07:41:50.458Z,1400
2022-08-11T07:42:51.057Z,1406
2022-08-11T07:43:51.659Z,1434
2022-08-11T07:44:52.292Z,1490
2022-08-11T07:45:52.924Z,1530
2022-08-11T07:46:53.528Z,1575
2022-08-11T07:47:54.133Z,1620
2022-08-11T07:48:54.745Z,1642
2022-08-11T07:49:55.343Z,1676
2022-08-11T07:50:56.311Z,1704
2022-08-11T07:51:56.562Z,1738
2022-08-11T07:52:57.166Z,1777
2022-08-11T07:54:03.244Z,1822
2022-08-11T07:54:59.367Z,1861
2022-08-11T07:56:00.960Z,1878
2022-08-11T07:57:09.048Z,1890
2022-08-11T07:58:15.287Z,1901
2022-08-11T07:59:08.152Z,1906
2022-08-11T08:00:05.421Z,1901
2022-08-11T08:01:10.643Z,1867
2022-08-11T08:02:07.657Z,1861
2022-08-11T08:03:08.256Z,1861
2022-08-11T08:04:08.859Z,1850
2022-08-11T08:05:09.485Z,1839
2022-08-11T08:06:35.479Z,1850
2022-08-11T08:07:11.683Z,1873
2022-08-11T08:08:12.286Z,1890
2022-08-11T08:09:12.910Z,1929
2022-08-11T08:10:14.135Z,1974
2022-08-11T08:11:15.133Z,2036
2022-08-11T08:12:15.754Z,2053
2022-08-11T08:13:16.357Z,2064
2022-08-11T08:14:16.962Z,2070
2022-08-11T08:15:17.564Z,2075
2022-08-11T08:16:18.167Z,2070
2022-08-11T08:17:18.769Z,2047
2022-08-11T08:18:27.110Z,2030
2022-08-11T08:19:20.021Z,2025
2022-08-11T08:20:20.624Z,2053
2022-08-11T08:21:21.229Z,2081
2022-08-11T08:22:38.731Z,2115
2022-08-11T08:23:23.433Z,2176
2022-08-11T08:24:24.032Z,2216
2022-08-11T08:25:24.636Z,2255
2022-08-11T08:26:25.237Z,2272
2022-08-11T08:27:25.862Z,2289
2022-08-11T08:28:32.172Z,2328
2022-08-11T08:29:29.053Z,2345
2022-08-11T08:30:29.657Z,2356
2022-08-11T08:31:30.262Z,2351
2022-08-11T08:32:30.863Z,2334
2022-08-11T08:33:31.468Z,2317
2022-08-11T08:34:32.406Z,2278
2022-08-11T08:35:33.668Z,2266
2022-08-11T08:36:34.269Z,2266
2022-08-11T08:37:46.027Z,2283
2022-08-11T08:38:36.467Z,2311
2022-08-11T08:39:37.154Z,2396
2022-08-11T08:40:37.731Z,2491
2022-08-11T08:41:38.334Z,2565
2022-08-11T08:42:44.472Z,2621
2022-08-11T08:43:48.576Z,2655
2022-08-11T08:44:44.964Z,2711
2022-08-11T08:45:43.729Z,2739
2022-08-11T08:46:44.334Z,2733
2022-08-11T08:47:45.277Z,2745
2022-08-11T08:48:46.531Z,2745
2022-08-11T08:49:47.134Z,2722
2022-08-11T08:50:47.756Z,2660
2022-08-11T08:52:00.894Z,2610
2022-08-11T08:52:50.440Z,2565
2022-08-11T08:53:53.388Z,2514
2022-08-11T08:54:52.996Z,2396
2022-08-11T08:55:53.600Z,2368
2022-08-11T08:56:54.206Z,2390
2022-08-11T08:57:54.816Z,2424
2022-08-11T08:58:55.425Z,2486
2022-08-11T08:59:56.036Z,2570
2022-08-11T09:00:56.683Z,2621
2022-08-11T09:01:57.261Z,2649
2022-08-11T09:02:57.886Z,2683
2022-08-11T09:04:04.767Z,2773
2022-08-11T09:05:00.086Z,2925
2022-08-11T09:06:00.689Z,3121
2022-08-11T09:07:01.289Z,3211
2022-08-11T09:08:02.887Z,3268
2022-08-11T09:09:03.490Z,3330
2022-08-11T09:10:04.093Z,3391
2022-08-11T09:11:04.696Z,3470
2022-08-11T09:12:05.299Z,3487
2022-08-11T09:13:05.903Z,3386
2022-08-11T09:14:10.302Z,3206
2022-08-11T09:15:08.151Z,3037
2022-08-11T09:16:08.717Z,2936
2022-08-11T09:17:09.318Z,2913
2022-08-11T09:18:09.924Z,2902
2022-08-11T09:19:10.551Z,2908
2022-08-11T09:20:11.158Z,2908
2022-08-11T09:21:11.783Z,2874
2022-08-11T09:22:12.389Z,2846
2022-08-11T09:24:24.856Z,2700
2022-08-11T09:25:16.185Z,2694
2022-08-11T09:26:16.808Z,2745
2022-08-11T09:27:17.410Z,2795
2022-08-11T09:28:18.016Z,2885
2022-08-11T09:29:18.626Z,2953
2022-08-11T09:30:19.267Z,3015
2022-08-11T09:31:21.992Z,3048
2022-08-11T09:32:21.422Z,3138
2022-08-11T09:33:22.024Z,3138
2022-08-11T09:34:22.630Z,3110
2022-08-11T09:35:23.234Z,3121
2022-08-11T09:36:23.841Z,3178
2022-08-11T09:37:53.419Z,3172
2022-08-11T09:38:26.042Z,3127
2022-08-11T09:39:26.713Z,3065
2022-08-11T09:40:27.508Z,3015
2022-08-11T09:41:28.063Z,2925
2022-08-11T09:42:29.660Z,2868
2022-08-11T09:43:30.263Z,2840
2022-08-11T09:44:30.869Z,2812
2022-08-11T09:45:40.141Z,2818
2022-08-11T09:46:33.071Z,2835
2022-08-11T09:47:33.746Z,2902
2022-08-11T09:48:34.313Z,3009
2022-08-11T09:49:34.917Z,3150
2022-08-11T09:50:35.521Z,3268
2022-08-11T09:51:36.125Z,3397
2022-08-11T09:52:37.727Z,3543
2022-08-11T09:53:41.285Z,3639
2022-08-11T09:54:39.926Z,3661
2022-08-11T09:55:40.530Z,3723
2022-08-11T09:56:41.132Z,3751
2022-08-11T09:57:41.739Z,3695
2022-08-11T09:58:43.575Z,3526
2022-08-11T09:59:43.938Z,3386
2022-08-11T10:00:44.543Z,3273
2022-08-11T10:01:47.276Z,3223
2022-08-11T10:02:46.750Z,3211
2022-08-11T10:03:47.354Z,3211
2022-08-11T10:04:47.962Z,3251
2022-08-11T10:05:48.565Z,3251
2022-08-11T10:06:54.101Z,3223
2022-08-11T10:07:50.787Z,3251
2022-08-11T10:08:51.390Z,3330
2022-08-11T10:09:51.992Z,3414
2022-08-11T10:10:52.597Z,3583
2022-08-11T10:11:55.425Z,3667
2022-08-11T10:12:54.802Z,3695
2022-08-11T10:14:33.553Z,3735
2022-08-11T10:14:57.005Z,3836
2022-08-11T10:16:14.518Z,3948
2022-08-11T10:16:59.207Z,3943
2022-08-11T10:17:59.811Z,3875
2022-08-11T10:19:00.416Z,3819
2022-08-11T10:20:05.232Z,3864
2022-08-11T10:21:02.619Z,3943
2022-08-11T10:22:03.224Z,3931
2022-08-11T10:23:03.836Z,3898
2022-08-11T10:24:05.991Z,3841
2022-08-11T10:25:06.031Z,3802
2022-08-11T10:26:06.635Z,3768
2022-08-11T10:27:07.242Z,3706
2022-08-11T10:28:30.520Z,3600
2022-08-11T10:29:13.352Z,3448
2022-08-11T10:30:10.933Z,3296
2022-08-11T10:31:13.670Z,3206
2022-08-11T10:32:14.130Z,3172
2022-08-11T10:33:36.800Z,3183
2022-08-11T10:34:16.332Z,3251
2022-08-11T10:35:17.932Z,3318
2022-08-11T10:36:18.536Z,3403
2022-08-11T10:37:19.140Z,3476
2022-08-11T10:38:19.902Z,3538
2022-08-11T10:39:20.594Z,3611
2022-08-11T10:40:21.182Z,3667
2022-08-11T10:41:21.787Z,3735
2022-08-11T10:42:41.361Z,3858
2022-08-11T10:44:02.864Z,3931
2022-08-11T10:44:25.583Z,3948
2022-08-11T10:45:26.206Z,3903
2022-08-11T10:46:29.886Z,3881
2022-08-11T10:47:28.431Z,3870
2022-08-11T10:48:29.033Z,3858
2022-08-11T10:49:29.636Z,3819
2022-08-11T10:50:30.263Z,3695
2022-08-11T10:51:44.683Z,3639
2022-08-11T10:52:32.481Z,3616
2022-08-11T10:53:33.087Z,3650
2022-08-11T10:54:33.692Z,3757
2022-08-11T10:55:34.298Z,3870
2022-08-11T10:56:34.900Z,3993
2022-08-11T10:57:35.525Z,4151
2022-08-11T10:58:36.127Z,4331
2022-08-11T10:59:36.730Z,4455
2022-08-11T11:00:37.333Z,4640
2022-08-11T11:01:38.027Z,4719
2022-08-11T11:02:38.628Z,4640
2022-08-11T11:03:39.237Z,4533
2022-08-11T11:04:39.837Z,4314
2022-08-11T11:06:27.381Z,4207
2022-08-11T11:06:42.040Z,4173
2022-08-11T11:07:44.479Z,4156
2022-08-11T11:08:44.298Z,4038
2022-08-11T11:09:44.850Z,3926
2022-08-11T11:10:45.453Z,3903
2022-08-11T11:11:46.057Z,3937
2022-08-11T11:12:46.661Z,4111
2022-08-11T11:13:54.998Z,4325
2022-08-11T11:14:49.955Z,4286
2022-08-11T11:15:50.485Z,4173
2022-08-11T11:16:51.088Z,4044
2022-08-11T11:17:51.693Z,3993
2022-08-11T11:19:00.949Z,3999
2022-08-11T11:19:53.896Z,3982
2022-08-11T11:20:54.504Z,3982
2022-08-11T11:21:55.105Z,4016
2022-08-11T11:22:55.713Z,4095
2022-08-11T11:23:56.318Z,4196
2022-08-11T11:24:57.262Z,4263
2022-08-11T11:25:57.799Z,4325
2022-08-11T11:26:58.406Z,4314
2022-08-11T11:27:59.011Z,4241
2022-08-11T11:28:59.623Z,4111
2022-08-11T11:30:00.233Z,3926
2022-08-11T11:31:00.826Z,3808
2022-08-11T11:32:01.431Z,3813
2022-08-11T11:33:02.037Z,3999
2022-08-11T11:34:06.768Z,4179
2022-08-11T11:35:04.259Z,4466
2022-08-11T11:36:04.885Z,4725
2022-08-11T11:37:05.492Z,4950
2022-08-11T11:38:07.520Z,5056
2022-08-11T11:39:07.778Z,5124
2022-08-11T11:40:08.330Z,5141
2022-08-11T11:41:08.936Z,5096
2022-08-11T11:42:09.544Z,4916
2022-08-11T11:43:10.148Z,4848
2022-08-11T11:44:10.752Z,4815
2022-08-11T11:45:19.343Z,4702
2022-08-11T11:46:12.955Z,4556
2022-08-11T11:47:13.561Z,4483
2022-08-11T11:48:14.185Z,4477
2022-08-11T11:49:17.098Z,4449
2022-08-11T11:50:16.408Z,4483
2022-08-11T11:51:17.012Z,4494
2022-08-11T11:52:17.616Z,4533
2022-08-11T11:53:18.221Z,4601
2022-08-11T11:54:18.829Z,4618
2022-08-11T11:55:19.471Z,4516
2022-08-11T11:56:20.089Z,4398
2022-08-11T11:57:20.697Z,4275
2022-08-11T11:58:22.267Z,4173
2022-08-11T11:59:22.902Z,4145
2022-08-11T12:00:23.504Z,4066
2022-08-11T12:01:25.102Z,4005
2022-08-11T12:02:25.825Z,3954
2022-08-11T12:03:26.470Z,3948
2022-08-11T12:04:27.187Z,3954
2022-08-11T12:05:27.791Z,3965
2022-08-11T12:06:28.396Z,3988
2022-08-11T12:07:29.071Z,4055
2022-08-11T12:08:29.647Z,4140
2022-08-11T12:09:30.248Z,4196
2022-08-11T12:10:30.852Z,4207
2022-08-11T12:11:31.461Z,4246
2022-08-11T12:12:32.084Z,4398
2022-08-11T12:13:32.692Z,4618
2022-08-11T12:14:33.296Z,4775
2022-08-11T12:16:31.073Z,4843
2022-08-11T12:16:36.779Z,4758
2022-08-11T12:17:37.221Z,4606
2022-08-11T12:18:37.720Z,4359
2022-08-11T12:19:38.325Z,4128
2022-08-11T12:20:38.945Z,3926
2022-08-11T12:21:39.553Z,3785
2022-08-11T12:22:40.159Z,3611
2022-08-11T12:23:40.762Z,3515
2022-08-11T12:24:41.414Z,3476
2022-08-11T12:25:42.008Z,3521
2022-08-11T12:26:42.629Z,3583
2022-08-11T12:27:43.235Z,3690
2022-08-11T12:28:43.838Z,3892
2022-08-11T12:29:44.445Z,4038
2022-08-11T12:30:47.403Z,4083
2022-08-11T12:31:46.647Z,4010
2022-08-11T12:32:47.251Z,3988
2022-08-11T12:33:47.856Z,4033
2022-08-11T12:34:48.461Z,4185
2022-08-11T12:36:00.915Z,4370
2022-08-11T12:36:50.664Z,4516
2022-08-11T12:37:51.271Z,4595
2022-08-11T12:38:51.893Z,4595
2022-08-11T12:40:16.624Z,4758
2022-08-11T12:41:16.624Z,4764
2022-08-11T12:41:55.734Z,4696
2022-08-11T12:42:56.488Z,4567
2022-08-11T12:43:57.535Z,4348
2022-08-11T12:44:58.163Z,4263
2022-08-11T12:45:58.768Z,4280
2022-08-11T12:46:59.373Z,4365
2022-08-11T12:48:14.000Z,4381
2022-08-11T12:49:02.713Z,4376
2022-08-11T12:50:03.179Z,4528
2022-08-11T12:51:03.788Z,4713
2022-08-11T12:52:14.867Z,4809
2022-08-11T12:53:06.009Z,4764
2022-08-11T12:54:06.615Z,4657
2022-08-11T12:55:12.564Z,4500
2022-08-11T12:56:08.842Z,4438
2022-08-11T12:57:09.467Z,4370
2022-08-11T12:58:10.074Z,4297
2022-08-11T12:59:10.677Z,4246
2022-08-11T13:00:11.286Z,4201
2022-08-11T13:01:12.488Z,4162
2022-08-11T13:02:13.393Z,4083
2022-08-11T13:03:13.999Z,3960
2022-08-11T13:04:14.609Z,3858
2022-08-11T13:05:15.208Z,3808
2022-08-11T13:06:15.812Z,3813
2022-08-11T13:07:17.401Z,3841
2022-08-11T13:08:18.010Z,3943
2022-08-11T13:09:18.636Z,4044
2022-08-11T13:10:19.334Z,4145
2022-08-11T13:11:19.903Z,4213
2022-08-11T13:12:20.505Z,4207
2022-08-11T13:13:54.541Z,4224
2022-08-11T13:14:22.709Z,4258
2022-08-11T13:15:23.316Z,4291
2022-08-11T13:16:23.918Z,4291
2022-08-11T13:17:43.725Z,4246
2022-08-11T13:18:26.142Z,4162
2022-08-11T13:19:26.749Z,4100
2022-08-11T13:20:27.354Z,4123
2022-08-11T13:21:27.958Z,4162
2022-08-11T13:22:28.588Z,4190
2022-08-11T13:23:30.165Z,4207
2022-08-11T13:24:30.771Z,4246
2022-08-11T13:25:31.377Z,4252
2022-08-11T13:26:47.000Z,4224
2022-08-11T13:27:33.576Z,4235
2022-08-11T13:28:34.183Z,4314
2022-08-11T13:29:34.793Z,4455
2022-08-11T13:30:39.097Z,4623
2022-08-11T13:31:36.011Z,4567
2022-08-11T13:32:36.616Z,4393
2022-08-11T13:33:37.218Z,4280
2022-08-11T13:34:38.857Z,4095
2022-08-11T13:35:39.421Z,4050
2022-08-11T13:36:40.027Z,4089
2022-08-11T13:38:18.432Z,4381
2022-08-11T13:38:44.452Z,4561
2022-08-11T13:39:43.870Z,4663
2022-08-11T13:40:55.554Z,4747
2022-08-11T13:41:46.030Z,4786
2022-08-11T13:42:46.636Z,4770
2022-08-11T13:43:47.241Z,4713
2022-08-11T13:44:47.848Z,4584
2022-08-11T13:45:48.454Z,4421
2022-08-11T13:46:49.061Z,4078
2022-08-11T13:47:50.660Z,3841
2022-08-11T13:48:51.268Z,3740
2022-08-11T13:49:52.863Z,3796
2022-08-11T13:50:53.471Z,3819
2022-08-11T13:51:54.081Z,3870
2022-08-11T13:52:54.683Z,3881
2022-08-11T13:53:55.286Z,3690
2022-08-11T13:54:56.885Z,3813
2022-08-11T13:55:57.493Z,3886
2022-08-11T13:56:58.116Z,3870
2022-08-11T13:58:19.271Z,3830
2022-08-11T13:59:00.323Z,3695
2022-08-11T14:00:01.217Z,3701
2022-08-11T14:01:01.827Z,3695